Time;durP1;ratioP1;P1;durP2;ratioP2;P2;SDS_P1;SDS_P2;PMS_P1;PMS_P2;Temp;Humidity;BMP_temperature;BMP_pressure;BME280_temperature;BME280_humidity;BME280_pressure;Samples;Min_cycle;Max_cycle;Signal;HPM_P1;HPM_P2
2022/01/29 00:00:12;;;;;;;0.60;0.60;;;;;;;-6.97;84.11;97906.38;5052073;28;20076;-83
2022/01/29 00:02:40;;;;;;;0.70;0.70;;;;;;;-7.02;84.28;97901.59;5051725;28;20088;-84
2022/01/29 00:05:09;;;;;;;0.73;0.73;;;;;;;-7.03;84.22;97902.59;5051897;28;20052;-83
2022/01/29 00:07:40;;;;;;;0.65;0.65;;;;;;;-7.04;84.22;97890.47;5051625;28;20060;-83
2022/01/29 00:10:09;;;;;;;0.80;0.80;;;;;;;-7.06;84.40;97889.81;5050834;28;20544;-84
2022/01/29 00:12:37;;;;;;;0.70;0.70;;;;;;;-7.06;84.23;97886.38;5050129;28;20052;-83
2022/01/29 00:15:04;;;;;;;0.70;0.70;;;;;;;-7.09;84.31;97889.28;5050871;28;20049;-84
2022/01/29 00:17:32;;;;;;;0.60;0.60;;;;;;;-7.09;84.18;97884.03;5050410;28;20051;-82
2022/01/29 00:19:59;;;;;;;0.80;0.80;;;;;;;-7.10;84.30;97892.91;5051753;28;20049;-84
2022/01/29 00:22:26;;;;;;;0.70;0.70;;;;;;;-7.13;83.96;97883.56;5050409;28;20056;-86
2022/01/29 00:24:56;;;;;;;0.85;0.85;;;;;;;-7.15;84.20;97890.75;5051811;28;20053;-86
2022/01/29 00:27:26;;;;;;;0.70;0.70;;;;;;;-7.18;84.18;97883.22;5050885;28;20051;-86
2022/01/29 00:29:54;;;;;;;0.70;0.70;;;;;;;-7.17;84.32;97884.84;5052263;28;20069;-84
2022/01/29 00:32:22;;;;;;;0.70;0.70;;;;;;;-7.18;84.25;97880.59;5050839;28;20041;-85
2022/01/29 00:34:49;;;;;;;0.80;0.80;;;;;;;-7.18;84.45;97883.22;5050353;28;20533;-85
2022/01/29 00:37:16;;;;;;;0.60;0.60;;;;;;;-7.18;84.33;97874.53;5050081;28;20503;-85
2022/01/29 00:39:43;;;;;;;0.70;0.70;;;;;;;-7.16;84.33;97886.50;5033149;28;20080;-85
2022/01/29 00:42:10;;;;;;;0.60;0.60;;;;;;;-7.20;84.26;97879.91;5031672;28;20058;-85
2022/01/29 00:44:43;;;;;;;0.80;0.80;;;;;;;-7.21;84.35;97880.91;5031420;28;20049;-85
2022/01/29 00:47:11;;;;;;;0.70;0.70;;;;;;;-7.25;84.56;97882.19;5031288;28;20603;-84
2022/01/29 00:49:39;;;;;;;0.70;0.70;;;;;;;-7.21;84.57;97883.53;5029697;28;20428;-84
2022/01/29 00:52:06;;;;;;;0.70;0.70;;;;;;;-7.21;84.40;97886.97;5031307;28;20041;-85
2022/01/29 00:54:33;;;;;;;0.90;0.90;;;;;;;-7.24;84.53;97889.91;5031121;28;20405;-84
2022/01/29 00:57:00;;;;;;;0.75;0.75;;;;;;;-7.23;84.67;97883.69;5031345;28;20057;-84
2022/01/29 00:59:28;;;;;;;0.80;0.80;;;;;;;-7.17;84.49;97887.47;5029854;28;20049;-84
2022/01/29 01:01:55;;;;;;;0.60;0.60;;;;;;;-7.18;84.52;97883.22;5031252;28;20041;-84
2022/01/29 01:04:22;;;;;;;0.63;0.63;;;;;;;-7.11;84.21;97889.47;5030029;28;20042;-85
2022/01/29 01:06:49;;;;;;;0.60;0.60;;;;;;;-7.08;84.23;97888.31;5031431;28;20053;-85
2022/01/29 01:09:16;;;;;;;0.70;0.70;;;;;;;-7.06;nan;97884.56;5036641;28;20386;-83
2022/01/29 01:11:43;;;;;;;0.68;0.68;;;;;;;-7.04;84.07;97885.22;5034556;28;20065;-85
2022/01/29 01:14:10;;;;;;;0.68;0.68;;;;;;;-7.04;84.03;97893.09;5030571;28;20042;-85
2022/01/29 01:16:40;;;;;;;0.70;0.70;;;;;;;-7.00;83.94;97883.91;5031023;28;20058;-86
2022/01/29 01:19:07;;;;;;;0.73;0.73;;;;;;;-7.02;83.82;97891.09;5030317;28;20045;-85
2022/01/29 01:21:34;;;;;;;0.65;0.65;;;;;;;-7.02;83.93;97891.09;5029787;28;20451;-86
2022/01/29 01:24:02;;;;;;;0.77;0.77;;;;;;;-7.00;84.00;97880.47;5030888;28;20068;-86
2022/01/29 01:26:29;;;;;;;0.80;0.80;;;;;;;-7.00;84.08;97877.84;5029905;28;20459;-84
2022/01/29 01:28:56;;;;;;;0.80;0.80;;;;;;;-6.98;83.69;97876.69;5029738;28;20406;-86
2022/01/29 01:31:28;;;;;;;0.60;0.60;;;;;;;-6.97;83.86;97880.13;5030862;28;20045;-86
2022/01/29 01:33:55;;;;;;;0.70;0.70;;;;;;;-6.97;83.74;97882.75;5029849;28;20432;-84
2022/01/29 01:36:25;;;;;;;0.50;0.50;;;;;;;-7.00;83.74;97886.53;5030718;28;20053;-85
2022/01/29 01:39:00;;;;;;;0.70;0.70;;;;;;;-6.96;83.64;97887.03;5030123;28;20156;-85
2022/01/29 01:41:28;;;;;;;;;;;;;;;-6.94;83.55;97889.50;5031386;28;20069;-86
2022/01/29 01:44:01;;;;;;;0.80;0.80;;;;;;;-6.93;83.55;97889.34;5035322;28;19925;-87
2022/01/29 01:46:29;;;;;;;0.70;0.70;;;;;;;-6.95;83.60;97882.63;5016815;28;20046;-87
2022/01/29 01:48:57;;;;;;;0.63;0.63;;;;;;;-6.93;83.42;97885.91;5034682;28;20067;-87
2022/01/29 01:51:25;;;;;;;0.57;0.57;;;;;;;-6.97;83.42;97888.00;5034712;28;20079;-87
2022/01/29 01:53:52;;;;;;;0.80;0.80;;;;;;;-7.01;83.45;97876.22;5034703;28;20401;-87
2022/01/29 01:56:20;;;;;;;0.70;0.70;;;;;;;-6.96;83.64;97876.56;5034901;28;20061;-87
2022/01/29 01:58:47;;;;;;;0.63;0.63;;;;;;;-6.97;83.52;97874.91;5035040;28;20053;-85
2022/01/29 02:01:40;;;;;;;0.70;0.70;;;;;;;-6.91;83.56;97878.66;5035010;28;20041;-88
2022/01/29 02:04:07;;;;;;;0.60;0.60;;;;;;;-6.94;83.50;97884.25;5034846;28;20148;-86
2022/01/29 02:06:34;;;;;;;0.80;0.80;;;;;;;-6.94;83.64;97887.69;5034198;28;20300;-87
2022/01/29 02:09:02;;;;;;;0.73;0.73;;;;;;;-6.92;83.64;97887.53;5033591;28;20068;-87
2022/01/29 02:11:38;;;;;;;0.70;0.70;;;;;;;-6.89;83.54;97887.19;5016955;28;20201;-86
2022/01/29 02:14:09;;;;;;;0.70;0.70;;;;;;;-6.91;83.34;97889.16;5034381;28;20073;-85
2022/01/29 02:16:38;;;;;;;0.82;0.82;;;;;;;-6.89;83.51;97884.59;5033711;28;20053;-85
2022/01/29 02:19:05;;;;;;;0.70;0.70;;;;;;;-6.88;83.60;97887.06;5034204;28;20136;-86
2022/01/29 02:21:36;;;;;;;0.60;0.60;;;;;;;-6.89;83.51;97882.78;5034018;28;20092;-85
2022/01/29 02:24:03;;;;;;;0.70;0.70;;;;;;;-6.87;83.71;97880.00;5034252;28;20064;-86
2022/01/29 02:26:31;;;;;;;0.60;0.60;;;;;;;-6.83;83.18;97884.75;5034022;28;20073;-87
2022/01/29 02:28:58;;;;;;;0.60;0.60;;;;;;;-6.81;83.51;97889.84;5034171;28;20045;-87
2022/01/29 02:31:25;;;;;;;0.60;0.60;;;;;;;-6.80;83.46;97881.81;5034224;28;20106;-87
2022/01/29 02:33:52;;;;;;;0.63;0.63;;;;;;;-6.78;83.46;97890.34;5016738;28;20045;-87
2022/01/29 02:36:20;;;;;;;0.70;0.70;;;;;;;-6.82;83.49;97883.78;5034591;28;20053;-83
2022/01/29 02:38:48;;;;;;;0.60;0.60;;;;;;;-6.81;83.30;97882.81;5033695;28;20049;-82
2022/01/29 02:41:15;;;;;;;0.73;0.73;;;;;;;-6.80;83.43;97883.63;5032538;28;20639;-82
2022/01/29 02:43:51;;;;;;;0.80;0.80;;;;;;;-6.82;83.36;97886.41;5033207;28;20103;-83
2022/01/29 02:48:48;;;;;;;0.90;0.90;;;;;;;-6.82;83.49;97893.44;5032497;28;20128;-84
2022/01/29 02:51:17;;;;;;;0.60;0.60;;;;;;;-6.81;83.32;97881.97;5034303;28;20079;-84
2022/01/29 02:53:44;;;;;;;0.80;0.80;;;;;;;-6.83;83.21;97889.19;5031429;28;20127;-85
2022/01/29 02:56:11;;;;;;;0.73;0.73;;;;;;;-6.85;83.36;97893.78;5033188;28;20041;-85
2022/01/29 02:58:39;;;;;;;0.80;0.80;;;;;;;-6.83;83.29;97887.38;5031886;28;20052;-85
2022/01/29 03:01:09;;;;;;;0.77;0.77;;;;;;;-6.85;83.41;97889.34;5033168;28;20049;-86
2022/01/29 03:03:36;;;;;;;0.73;0.73;;;;;;;-6.84;83.10;97887.53;5032952;28;20053;-85
2022/01/29 03:06:08;;;;;;;0.80;0.80;;;;;;;-6.83;83.18;97886.56;5033112;28;20143;-85
2022/01/29 03:08:36;;;;;;;0.90;0.90;;;;;;;-6.85;83.34;97889.34;5033233;28;20460;-86
2022/01/29 03:11:04;;;;;;;0.75;0.75;;;;;;;-6.83;83.03;97894.44;5033169;28;20478;-86
2022/01/29 03:13:32;;;;;;;0.80;0.80;;;;;;;-6.86;83.16;97892.97;5031695;28;20076;-86
2022/01/29 03:15:59;;;;;;;0.70;0.70;;;;;;;-6.87;83.14;97893.13;5033229;28;20103;-87
2022/01/29 03:18:27;;;;;;;0.70;0.70;;;;;;;-6.91;83.11;97897.03;5032764;28;20045;-84
2022/01/29 03:20:54;;;;;;;0.60;0.60;;;;;;;-6.89;83.29;97897.69;5032882;28;20054;-84
2022/01/29 03:23:21;;;;;;;0.80;0.80;;;;;;;-6.95;83.28;97885.25;5032969;28;20056;-85
2022/01/29 03:25:48;;;;;;;0.90;0.90;;;;;;;-6.90;83.36;97890.81;5031360;28;20104;-85
2022/01/29 03:28:15;;;;;;;0.70;0.70;;;;;;;-6.90;83.37;97885.56;5064134;28;20064;-86
2022/01/29 03:30:42;;;;;;;0.50;0.50;;;;;;;-6.86;83.37;97897.38;5032618;28;20152;-84
2022/01/29 03:33:10;;;;;;;0.70;0.70;;;;;;;-6.86;83.31;97900.00;5032860;28;20050;-86
2022/01/29 03:35:38;;;;;;;0.70;0.70;;;;;;;-6.88;83.28;97909.84;5031287;28;20045;-86
2022/01/29 03:38:05;;;;;;;0.55;0.55;;;;;;;-6.86;83.06;97902.63;5032469;28;20084;-86
2022/01/29 03:40:34;;;;;;;0.63;0.63;;;;;;;-6.87;83.04;97907.06;5032305;28;20076;-83
2022/01/29 03:43:10;;;;;;;0.60;0.60;;;;;;;-6.82;83.09;97903.94;5031206;28;20053;-82
2022/01/29 03:45:37;;;;;;;0.68;0.68;;;;;;;-6.83;83.02;97911.00;5032248;28;20050;-82
2022/01/29 03:48:06;;;;;;;0.60;0.60;;;;;;;-6.83;83.08;97907.56;5032368;28;20103;-82
2022/01/29 03:50:35;;;;;;;0.88;0.88;;;;;;;-6.83;83.04;97907.56;5031760;28;20057;-82
2022/01/29 03:53:02;;;;;;;0.77;0.77;;;;;;;-6.81;82.94;97902.94;5032161;28;20057;-82
2022/01/29 03:55:30;;;;;;;0.60;0.60;;;;;;;-6.76;83.04;97900.66;5030970;28;20064;-82
2022/01/29 03:57:57;;;;;;;0.70;0.70;;;;;;;-6.73;83.12;97902.16;5032191;28;20087;-82
2022/01/29 04:00:24;;;;;;;0.75;0.75;;;;;;;-6.76;82.99;97892.78;5032107;28;20045;-84
2022/01/29 04:02:51;;;;;;;0.60;0.60;;;;;;;-6.80;83.00;97888.88;5032131;28;20065;-86
2022/01/29 04:05:18;;;;;;;0.70;0.70;;;;;;;-6.82;82.79;97894.28;5030932;28;20049;-87
2022/01/29 04:07:45;;;;;;;0.60;0.60;;;;;;;-6.88;83.21;97896.72;5031844;28;20053;-85
2022/01/29 04:10:13;;;;;;;0.60;0.60;;;;;;;-6.89;83.25;97892.44;5032144;28;20049;-87
2022/01/29 04:12:45;;;;;;;0.50;0.50;;;;;;;-6.88;82.93;97897.53;5031943;28;20049;-86
2022/01/29 04:15:12;;;;;;;0.70;0.70;;;;;;;-6.88;83.12;97894.13;5032395;28;20419;-86
2022/01/29 04:17:39;;;;;;;0.70;0.70;;;;;;;-6.89;83.07;97887.19;5014689;28;20511;-87
2022/01/29 04:20:08;;;;;;;0.60;0.60;;;;;;;-6.82;83.17;97906.56;5031325;28;20045;-86
2022/01/29 04:22:35;;;;;;;0.80;0.80;;;;;;;-6.85;83.12;97902.47;5031972;28;20041;-86
2022/01/29 04:25:02;;;;;;;0.70;0.70;;;;;;;-6.88;82.94;97904.59;5031818;28;20053;-87
2022/01/29 04:27:36;;;;;;;0.80;0.80;;;;;;;-6.84;83.07;97908.53;5033300;28;20052;-86
2022/01/29 04:30:10;;;;;;;0.90;0.90;;;;;;;-6.85;82.99;97917.41;5043690;28;20095;-86
2022/01/29 04:35:08;;;;;;;0.77;0.77;;;;;;;-6.88;83.09;97912.47;5032361;28;20045;-86
2022/01/29 04:37:36;;;;;;;0.70;0.70;;;;;;;-6.88;83.08;97917.72;5045459;28;20488;-87
2022/01/29 04:40:04;;;;;;;0.75;0.75;;;;;;;-6.92;83.52;97903.28;5041053;28;20048;-86
2022/01/29 04:42:31;;;;;;;0.70;0.70;;;;;;;-6.84;83.37;97905.91;5044262;28;20049;-85
2022/01/29 04:44:58;;;;;;;0.70;0.70;;;;;;;-6.85;83.35;97904.28;5054916;28;20090;-82
2022/01/29 04:47:26;;;;;;;0.88;0.88;;;;;;;-6.80;83.45;97896.75;5045251;28;20139;-83
2022/01/29 04:49:53;;;;;;;0.80;0.80;;;;;;;-6.76;83.30;97908.53;5032841;28;20056;-84
2022/01/29 04:52:20;;;;;;;0.70;0.70;;;;;;;-6.71;83.02;97911.50;5040206;28;20103;-82
2022/01/29 04:54:47;;;;;;;0.63;0.63;;;;;;;-6.79;83.04;97893.13;5040747;28;20523;-82
2022/01/29 04:57:15;;;;;;;0.80;0.80;;;;;;;-6.75;82.84;97897.06;5039890;28;20049;-83
2022/01/29 04:59:42;;;;;;;0.68;0.68;;;;;;;-6.76;82.89;97898.03;5050979;28;20416;-84
2022/01/29 05:02:10;;;;;;;0.52;0.52;;;;;;;-6.79;82.73;97908.88;5049717;28;20059;-82
2022/01/29 05:04:37;;;;;;;0.82;0.82;;;;;;;-6.73;82.74;97910.88;5048488;28;20077;-83
2022/01/29 05:07:04;;;;;;;0.77;0.77;;;;;;;-6.71;83.15;97929.06;5048785;28;20049;-81
2022/01/29 05:09:32;;;;;;;0.63;0.63;;;;;;;-6.74;83.11;97932.81;5044167;28;20041;-82
2022/01/29 05:12:01;;;;;;;0.60;0.60;;;;;;;-6.72;83.33;97940.53;5033263;28;20057;-84
2022/01/29 05:14:44;;;;;;;0.68;0.68;;;;;;;-6.73;83.29;97929.22;5021201;28;20052;-85
2022/01/29 05:28:25;;;;;;;0.75;0.75;;;;;;;-6.64;83.50;97911.69;5043938;28;20052;-88
2022/01/29 05:30:52;;;;;;;0.80;0.80;;;;;;;-6.63;83.34;97914.16;5036044;28;20041;-86
2022/01/29 05:33:19;;;;;;;0.70;0.70;;;;;;;-6.62;83.48;97921.03;5035322;28;20049;-86
2022/01/29 05:35:46;;;;;;;0.75;0.75;;;;;;;-6.67;83.28;97923.31;5034933;28;20084;-85
2022/01/29 05:38:13;;;;;;;0.80;0.80;;;;;;;-6.68;83.62;97928.72;5046249;28;20508;-84
2022/01/29 05:40:40;;;;;;;0.70;0.70;;;;;;;-6.69;83.76;97930.53;5035918;28;20108;-83
2022/01/29 05:43:08;;;;;;;0.70;0.70;;;;;;;-6.66;83.46;97932.84;5036313;28;20057;-86
2022/01/29 05:45:35;;;;;;;0.80;0.80;;;;;;;-6.67;83.74;97939.06;5036648;28;20505;-84
2022/01/29 05:48:02;;;;;;;0.70;0.70;;;;;;;-6.68;83.77;97941.84;5043997;28;20060;-85
2022/01/29 05:50:30;;;;;;;0.70;0.70;;;;;;;-6.64;83.33;97940.56;5039509;28;20060;-92
2022/01/29 05:52:58;;;;;;;0.80;0.80;;;;;;;-6.67;83.49;97935.63;5037695;28;20038;-84
2022/01/29 05:55:25;;;;;;;0.60;0.60;;;;;;;-6.67;83.36;97938.25;5034255;28;20045;-85
2022/01/29 05:57:52;;;;;;;0.65;0.65;;;;;;;-6.69;83.62;97946.28;5045989;28;20080;-84
2022/01/29 06:00:19;;;;;;;0.75;0.75;;;;;;;-6.66;83.19;97947.75;5061821;28;20064;-83
2022/01/29 06:02:47;;;;;;;0.77;0.77;;;;;;;-6.68;83.50;97942.69;5055600;28;20141;-85
2022/01/29 06:05:14;;;;;;;0.73;0.73;;;;;;;-6.66;83.21;97939.88;5057115;28;20569;-91
2022/01/29 06:07:41;;;;;;;0.80;0.80;;;;;;;-6.62;83.09;97942.03;5056625;28;20056;-90
2022/01/29 06:10:09;;;;;;;0.80;0.80;;;;;;;-6.60;83.00;97955.81;5051852;28;20044;-87
2022/01/29 06:12:37;;;;;;;0.70;0.70;;;;;;;-6.65;82.86;97947.63;5035046;28;20056;-87
2022/01/29 06:15:04;;;;;;;0.80;0.80;;;;;;;-6.52;82.66;97949.75;5019036;28;20049;-86
2022/01/29 06:17:31;;;;;;;0.63;0.63;;;;;;;-6.58;82.64;97930.25;5033530;28;20065;-84
2022/01/29 06:19:59;;;;;;;0.60;0.60;;;;;;;-6.42;82.66;97950.44;5035585;28;20518;-88
2022/01/29 06:22:27;;;;;;;0.90;0.90;;;;;;;-6.42;82.48;97952.25;5048570;28;20130;-88
2022/01/29 06:24:54;;;;;;;0.60;0.60;;;;;;;-6.39;82.22;97959.78;5052639;28;20111;-86
2022/01/29 06:27:21;;;;;;;0.70;0.70;;;;;;;-6.39;82.00;97957.16;5055879;28;20102;-91
2022/01/29 06:29:49;;;;;;;0.50;0.50;;;;;;;-6.43;81.93;97953.22;4695491;28;10000461;-86
2022/01/29 06:32:17;;;;;;;0.70;0.70;;;;;;;-6.33;81.95;97959.97;5069258;28;20077;-90
2022/01/29 06:34:44;;;;;;;0.70;0.70;;;;;;;-6.23;81.68;97964.22;5058636;28;20049;-93
2022/01/29 06:37:11;;;;;;;0.60;0.60;;;;;;;-6.22;81.31;97966.69;5056981;28;20056;-86
2022/01/29 06:39:38;;;;;;;0.80;0.80;;;;;;;-6.16;81.37;97960.78;5056236;28;20462;-88
2022/01/29 06:42:06;;;;;;;0.88;0.88;;;;;;;-6.16;81.26;97962.59;5055599;28;20136;-90
2022/01/29 06:44:33;;;;;;;0.70;0.70;;;;;;;-6.17;81.24;97953.91;5052909;28;20049;-86
2022/01/29 06:47:02;;;;;;;0.70;0.70;;;;;;;-6.14;81.16;97960.63;5053433;28;20076;-86
2022/01/29 06:49:29;;;;;;;0.70;0.70;;;;;;;-6.13;81.12;97963.09;5055180;28;20415;-87
2022/01/29 06:51:57;;;;;;;0.60;0.60;;;;;;;-6.06;81.05;97958.00;5054739;28;20056;-83
2022/01/29 06:54:24;;;;;;;0.80;0.80;;;;;;;-5.99;80.88;97963.44;5054711;28;20049;-89
2022/01/29 06:56:51;;;;;;;0.82;0.82;;;;;;;-5.95;81.04;97964.72;5053941;28;20132;-88
2022/01/29 06:59:18;;;;;;;0.73;0.73;;;;;;;-5.92;80.83;97973.06;5053571;28;20069;-87
2022/01/29 07:01:45;;;;;;;0.70;0.70;;;;;;;-5.91;80.79;97966.00;5053541;28;20071;-88
2022/01/29 07:04:13;;;;;;;0.60;0.60;;;;;;;-5.95;80.74;97969.97;5039252;28;20072;-89
2022/01/29 07:06:40;;;;;;;0.88;0.88;;;;;;;-5.90;80.89;97975.53;5038034;28;20045;-88
2022/01/29 07:09:08;;;;;;;0.70;0.70;;;;;;;-5.83;80.71;97978.31;5055611;28;20064;-88
2022/01/29 07:11:35;;;;;;;0.80;0.80;;;;;;;-5.80;80.37;97973.53;5054940;28;20041;-86
2022/01/29 07:14:03;;;;;;;0.80;0.80;;;;;;;-5.75;80.40;97980.94;5038440;28;20080;-87
2022/01/29 07:16:32;;;;;;;0.70;0.70;;;;;;;-5.73;80.42;97982.41;5039509;28;20060;-88
2022/01/29 07:19:00;;;;;;;0.80;0.80;;;;;;;-5.66;80.30;97979.94;5056280;28;20045;-88
2022/01/29 07:21:27;;;;;;;0.85;0.85;;;;;;;-5.62;80.09;97983.91;5039872;28;20049;-86
2022/01/29 07:23:55;;;;;;;0.80;0.80;;;;;;;-5.49;79.84;97991.28;5054433;28;20143;-88
2022/01/29 07:26:22;;;;;;;0.80;0.80;;;;;;;-5.50;79.65;97979.91;5038868;28;20470;-90
2022/01/29 07:28:49;;;;;;;0.80;0.80;;;;;;;-5.39;79.59;97983.16;5056075;28;20044;-88
2022/01/29 07:31:20;;;;;;;0.80;0.80;;;;;;;-5.36;79.15;97988.13;5057086;28;20053;-87
2022/01/29 07:33:48;;;;;;;1.00;1.00;;;;;;;-5.31;79.03;97994.50;5052567;28;20049;-86
2022/01/29 07:36:15;;;;;;;0.90;0.90;;;;;;;-5.32;78.91;97986.78;5053876;28;20087;-89
2022/01/29 07:38:42;;;;;;;0.77;0.77;;;;;;;-5.35;79.15;97987.94;5062883;28;20053;-90
2022/01/29 07:41:13;;;;;;;0.90;0.90;;;;;;;-5.30;79.18;97990.88;5009295;28;20508;-89
2022/01/29 07:43:42;;;;;;;0.77;0.77;;;;;;;-5.15;79.16;97988.38;5040665;28;20098;-89
2022/01/29 07:46:09;;;;;;;1.00;1.00;;;;;;;-5.09;78.87;97986.88;5061077;28;20048;-89
2022/01/29 07:48:37;;;;;;;0.82;0.82;;;;;;;-5.08;78.39;97985.91;5062235;28;20079;-88
2022/01/29 07:51:04;;;;;;;0.73;0.73;;;;;;;-5.01;78.54;97984.22;5059131;28;20055;-88
2022/01/29 07:53:31;;;;;;;1.00;1.00;;;;;;;-4.95;78.40;97980.09;5055785;28;20045;-88
2022/01/29 07:55:58;;;;;;;1.00;1.00;;;;;;;-4.85;77.96;97992.03;5059095;28;20063;-90
2022/01/29 07:58:25;;;;;;;0.90;0.90;;;;;;;-4.71;77.57;97981.78;5059043;28;20049;-88
2022/01/29 08:00:53;;;;;;;0.80;0.80;;;;;;;-4.61;77.48;97969.22;5058940;28;20049;-88
2022/01/29 08:03:22;;;;;;;0.90;0.90;;;;;;;-4.56;77.41;97977.41;5064506;28;20045;-86
2022/01/29 08:05:52;;;;;;;0.73;0.73;;;;;;;-4.56;76.94;97977.41;5029749;28;20052;-88
2022/01/29 08:08:20;;;;;;;0.73;0.73;;;;;;;-4.54;76.98;97980.69;5055129;28;20041;-87
2022/01/29 08:10:48;;;;;;;0.90;0.90;;;;;;;-4.43;76.77;97988.22;5058053;28;20044;-88
2022/01/29 08:13:15;;;;;;;0.95;0.95;;;;;;;-4.46;76.68;97988.56;5021375;28;20139;-89
2022/01/29 08:15:42;;;;;;;0.77;0.77;;;;;;;-4.41;76.37;97985.41;5053556;28;20049;-87
2022/01/29 08:18:12;;;;;;;0.80;0.80;;;;;;;-4.41;76.34;97986.22;5049476;28;20049;-90
2022/01/29 08:20:39;;;;;;;0.90;0.90;;;;;;;-4.32;76.13;97978.28;5032587;28;20386;-83
2022/01/29 08:23:07;;;;;;;0.82;0.82;;;;;;;-4.22;75.83;97984.13;5080006;28;20045;-85
2022/01/29 08:25:36;;;;;;;1.10;1.10;;;;;;;-4.17;75.47;97987.06;5042248;28;20049;-82
2022/01/29 08:28:04;;;;;;;0.95;0.95;;;;;;;-4.25;75.57;97985.31;5047554;28;20057;-83
2022/01/29 08:30:31;;;;;;;0.73;0.73;;;;;;;-4.23;75.16;97971.94;5040259;28;20509;-82
2022/01/29 08:33:01;;;;;;;1.00;1.00;;;;;;;-4.32;75.27;97981.72;5030862;28;20049;-84
2022/01/29 08:35:28;;;;;;;1.00;1.00;;;;;;;-4.33;75.56;97990.59;5031247;28;20045;-81
2022/01/29 08:37:57;;;;;;;1.08;1.08;;;;;;;-4.19;75.34;97981.16;5029197;28;20045;-83
2022/01/29 08:40:24;;;;;;;1.00;1.00;;;;;;;-4.04;74.79;97987.28;5043084;28;20053;-80
2022/01/29 08:42:52;;;;;;;1.00;1.00;;;;;;;-4.08;74.46;97983.34;5030893;28;20092;-82
2022/01/29 08:45:20;;;;;;;1.10;1.10;;;;;;;-4.16;74.19;97978.16;5031327;28;20049;-81
2022/01/29 08:47:47;;;;;;;0.93;0.93;;;;;;;-4.31;75.02;97970.19;5031194;28;20046;-82
2022/01/29 08:50:14;;;;;;;1.15;1.13;;;;;;;-4.06;74.78;97986.66;5037537;28;20131;-82
2022/01/29 08:52:42;;;;;;;0.98;0.98;;;;;;;-4.04;74.66;97976.75;5035272;28;20045;-79
2022/01/29 08:55:10;;;;;;;0.85;0.85;;;;;;;-4.09;73.64;97989.63;5031365;28;20064;-81
2022/01/29 08:57:38;;;;;;;0.75;0.75;;;;;;;-4.09;74.13;97989.63;5030976;28;20532;-82
2022/01/29 09:00:07;;;;;;;0.80;0.80;;;;;;;-4.03;74.21;97982.84;5033418;28;20049;-83
2022/01/29 09:02:39;;;;;;;0.90;0.90;;;;;;;-4.03;73.89;97981.00;5039856;28;20046;-84
2022/01/29 09:05:07;;;;;;;1.00;1.00;;;;;;;-4.06;73.78;97980.56;5031073;28;20447;-83
2022/01/29 09:07:34;;;;;;;1.00;1.00;;;;;;;-3.96;73.92;97994.31;5031126;28;20046;-82
2022/01/29 09:10:03;;;;;;;0.90;0.90;;;;;;;-3.92;73.82;97991.16;5034593;28;20041;-82
2022/01/29 09:12:30;;;;;;;1.05;1.05;;;;;;;-3.86;73.43;97994.09;5038234;28;20581;-82
2022/01/29 09:14:57;;;;;;;0.95;0.95;;;;;;;-3.86;73.31;98002.81;5032527;28;20144;-80
2022/01/29 09:17:25;;;;;;;1.10;1.10;;;;;;;-3.83;73.37;98001.63;5030548;28;20073;-80
2022/01/29 09:19:52;;;;;;;1.00;1.00;;;;;;;-3.86;73.47;98002.00;5030451;28;20111;-79
2022/01/29 09:22:19;;;;;;;0.90;0.90;;;;;;;-3.77;73.04;98000.94;5032793;28;20046;-79
2022/01/29 09:24:46;;;;;;;1.02;1.02;;;;;;;-3.61;73.13;98003.41;5037161;28;20049;-79
2022/01/29 09:27:14;;;;;;;0.93;0.93;;;;;;;-3.44;72.99;97990.91;5030426;28;20041;-80
2022/01/29 09:29:41;;;;;;;0.90;0.90;;;;;;;-3.51;71.88;97993.44;5031043;28;20049;-82
2022/01/29 09:32:08;;;;;;;1.00;1.00;;;;;;;-3.49;72.11;97993.28;5030578;28;20073;-79
2022/01/29 09:34:39;;;;;;;1.00;1.00;;;;;;;-3.36;72.26;97980.28;5029442;28;20045;-81
2022/01/29 09:37:07;;;;;;;0.90;0.90;;;;;;;-3.43;71.34;98004.91;5047081;28;20072;-80
2022/01/29 09:39:34;;;;;;;1.02;1.02;;;;;;;-3.42;72.32;97998.63;5050577;28;20114;-82
2022/01/29 09:42:02;;;;;;;1.00;1.00;;;;;;;-3.31;72.20;97992.94;5050075;28;20140;-80
2022/01/29 09:44:30;;;;;;;0.95;0.95;;;;;;;-3.16;71.91;98001.66;5050549;28;20040;-79
2022/01/29 09:46:58;;;;;;;0.90;0.90;;;;;;;-3.10;71.94;98006.22;5026167;28;20064;-79
2022/01/29 09:49:26;;;;;;;1.02;1.02;;;;;;;-3.18;71.27;98005.50;5030291;28;20050;-80
2022/01/29 09:51:58;;;;;;;0.90;0.90;;;;;;;-3.37;71.40;98006.81;5029586;28;20463;-80
2022/01/29 09:54:28;;;;;;;0.80;0.80;;;;;;;-3.32;71.81;98001.81;5030943;28;20041;-81
2022/01/29 09:56:56;;;;;;;0.82;0.82;;;;;;;-3.15;72.07;97998.03;5033870;28;20187;-83
2022/01/29 09:59:23;;;;;;;0.90;0.90;;;;;;;-2.97;71.06;98005.56;5038145;28;20496;-82
2022/01/29 10:01:50;;;;;;;0.95;0.95;;;;;;;-3.04;70.77;98015.22;5049773;28;20075;-82
2022/01/29 10:04:18;;;;;;;1.08;1.08;;;;;;;-3.14;70.43;98015.50;5055446;28;20084;-82
2022/01/29 10:06:47;;;;;;;1.08;1.08;;;;;;;-3.35;70.54;98018.84;5056105;28;20136;-82
2022/01/29 10:09:33;;;;;;;0.80;0.80;;;;;;;-3.44;71.47;98021.72;5048765;28;20049;-83
2022/01/29 10:12:28;;;;;;;0.98;0.98;;;;;;;-3.24;71.73;98014.13;5054597;28;20084;-82
2022/01/29 10:15:01;;;;;;;1.00;1.00;;;;;;;-3.13;71.41;98011.84;5056068;28;20057;-83
2022/01/29 10:17:43;;;;;;;1.10;1.10;;;;;;;-3.01;71.04;98012.25;5054692;28;20523;-82
2022/01/29 10:20:19;;;;;;;1.00;1.00;;;;;;;-3.14;71.50;98007.59;5050864;28;20083;-82
2022/01/29 10:22:51;;;;;;;1.10;1.10;;;;;;;-3.04;71.18;98004.66;5052901;28;20136;-82
2022/01/29 10:25:26;;;;;;;0.93;0.93;;;;;;;-3.00;70.94;97997.22;5045846;28;20112;-81
2022/01/29 10:28:16;;;;;;;1.08;1.08;;;;;;;-2.91;71.05;98011.94;5042651;28;20060;-82
2022/01/29 10:30:52;;;;;;;0.90;0.90;;;;;;;-3.00;71.29;98008.59;5049557;28;20053;-83
2022/01/29 10:33:33;;;;;;;0.95;0.95;;;;;;;-2.84;71.53;98000.50;5053853;28;20504;-82
2022/01/29 10:36:14;;;;;;;0.70;0.70;;;;;;;-2.72;71.41;98000.81;5044352;28;20423;-84
2022/01/29 10:38:47;;;;;;;1.00;1.00;;;;;;;-2.68;71.10;98009.22;5052496;28;20049;-83
2022/01/29 10:41:31;;;;;;;0.90;0.90;;;;;;;-2.69;71.00;98013.66;5052402;28;20052;-84
2022/01/29 10:44:11;;;;;;;1.00;1.00;;;;;;;-2.78;70.72;97996.28;5035267;28;20095;-83
2022/01/29 10:46:49;;;;;;;0.90;0.90;;;;;;;-2.67;70.87;98010.84;5052227;28;20124;-85
2022/01/29 10:49:25;;;;;;;0.90;0.90;;;;;;;-2.71;70.71;97996.34;5051251;28;20510;-83
2022/01/29 10:52:12;;;;;;;1.00;1.00;;;;;;;-2.58;70.44;98007.09;5043141;28;20059;-81
2022/01/29 10:54:41;;;;;;;0.90;0.90;;;;;;;-2.59;70.14;98004.63;5042742;28;20415;-83
2022/01/29 10:57:14;;;;;;;1.10;1.10;;;;;;;-2.70;70.53;98005.94;5046772;28;20443;-84
2022/01/29 10:59:53;;;;;;;1.00;1.00;;;;;;;-2.69;70.90;97997.81;5071776;28;20057;-84
2022/01/29 11:02:25;;;;;;;0.90;0.90;;;;;;;-2.71;71.16;97991.91;5031629;28;20046;-84
2022/01/29 11:04:55;;;;;;;1.00;1.00;;;;;;;-2.74;70.83;97978.25;5031247;28;20424;-84
2022/01/29 11:07:27;;;;;;;0.80;0.80;;;;;;;-2.73;70.84;97998.38;5034062;28;20049;-86
2022/01/29 11:09:55;;;;;;;1.00;1.00;;;;;;;-2.73;70.86;98001.84;5033516;28;20068;-82
2022/01/29 11:12:25;;;;;;;0.90;0.90;;;;;;;-2.89;70.98;97975.63;5042251;28;20060;-81
2022/01/29 11:14:59;;;;;;;0.90;0.90;;;;;;;-2.98;71.19;98008.41;5033062;28;20045;-82
2022/01/29 11:17:31;;;;;;;1.00;1.00;;;;;;;-3.06;71.67;98001.41;5052739;28;20049;-82
2022/01/29 11:20:00;;;;;;;0.90;0.90;;;;;;;-3.13;71.85;97995.22;5051290;28;20056;-83
2022/01/29 11:22:40;;;;;;;1.00;1.00;;;;;;;-3.20;71.82;98000.38;5050386;28;21012;-82
2022/01/29 11:25:16;;;;;;;0.90;0.90;;;;;;;-3.39;72.16;97993.81;5040271;28;20106;-82
2022/01/29 11:27:44;;;;;;;1.05;1.05;;;;;;;-3.36;72.40;97990.81;5033315;28;20578;-82
2022/01/29 11:30:13;;;;;;;0.80;0.80;;;;;;;-3.36;72.58;97988.19;5034641;28;20471;-83
2022/01/29 11:32:52;;;;;;;1.00;1.00;;;;;;;-3.25;72.52;97991.38;5072283;28;20037;-83
2022/01/29 11:35:24;;;;;;;0.90;0.90;;;;;;;-3.36;72.50;97985.53;5041751;28;20143;-83
2022/01/29 11:37:53;;;;;;;0.70;0.70;;;;;;;-3.41;72.76;97992.38;5043822;28;20049;-82
2022/01/29 11:40:23;;;;;;;1.00;1.00;;;;;;;-3.49;72.83;97990.63;5041527;28;20443;-82
2022/01/29 11:43:10;;;;;;;1.00;1.00;;;;;;;-3.46;73.45;97992.09;5032615;28;20045;-83
2022/01/29 11:45:40;;;;;;;1.00;1.00;;;;;;;-3.46;73.37;97992.91;5019921;28;20419;-83
2022/01/29 11:51:05;;;;;;;0.90;0.90;;;;;;;-3.44;73.37;97995.34;5044974;28;20068;-83
2022/01/29 11:53:45;;;;;;;0.90;0.90;;;;;;;-3.39;73.55;98003.53;5046247;28;20045;-83
2022/01/29 11:56:32;;;;;;;0.80;0.80;;;;;;;-3.42;73.58;98006.53;5044060;28;20048;-84
2022/01/29 11:59:21;;;;;;;0.88;0.88;;;;;;;-3.40;73.79;98004.56;5051612;28;20088;-83
2022/01/29 12:01:57;;;;;;;0.80;0.80;;;;;;;-3.60;73.77;98002.41;5051354;28;20402;-83